Time;durP1;ratioP1;P1;durP2;ratioP2;P2;SDS_P1;SDS_P2;PMS_P1;PMS_P2;Temp;Humidity;BMP_temperature;BMP_pressure;BME280_temperature;BME280_humidity;BME280_pressure;Samples;Min_cycle;Max_cycle;Signal;HPM_P1;HPM_P2
2023/11/29 00:02:12;;;;;;;;;9.00;7.33;;;;;24.12;27.63;98719.75;245469;1182;73037;-59
2023/11/29 00:07:15;;;;;;;;;8.00;8.00;;;;;24.12;27.77;98741.20;245494;1177;73447;-60
2023/11/29 00:12:19;;;;;;;;;8.00;8.00;;;;;24.11;27.52;98710.69;245481;1182;72471;-60
2023/11/29 00:17:22;;;;;;;;;9.00;7.00;;;;;24.10;27.59;98718.61;245454;1181;58308;-60
2023/11/29 00:22:25;;;;;;;;;8.75;8.75;;;;;24.09;27.72;98712.23;245474;1177;58419;-60
2023/11/29 00:27:28;;;;;;;;;8.50;8.50;;;;;24.08;27.70;98725.54;245435;1177;58378;-61
2023/11/29 00:32:31;;;;;;;;;10.00;10.00;;;;;24.07;27.65;98720.86;245469;1182;58364;-60
2023/11/29 00:37:34;;;;;;;;;9.00;8.75;;;;;24.06;27.42;98744.62;245443;1182;58289;-60
2023/11/29 00:42:37;;;;;;;;;8.00;8.00;;;;;24.06;27.60;98756.54;245457;1177;58408;-60
2023/11/29 00:47:40;;;;;;;;;10.25;10.00;;;;;24.05;27.45;98758.02;245401;1179;58295;-60
2023/11/29 00:52:43;;;;;;;;;8.00;8.00;;;;;24.04;27.55;98771.02;245388;1177;58337;-60
2023/11/29 00:57:46;;;;;;;;;8.00;8.00;;;;;24.05;27.63;98781.70;245388;1182;58295;-60
2023/11/29 01:02:50;;;;;;;;;9.75;9.75;;;;;24.04;27.48;98781.45;245413;1182;74026;-60
2023/11/29 01:07:55;;;;;;;;;9.25;9.25;;;;;24.04;27.56;98801.11;245399;1184;72483;-61
2023/11/29 01:12:58;;;;;;;;;12.25;12.25;;;;;24.04;27.62;98801.53;245382;1177;72682;-61
2023/11/29 01:18:01;;;;;;;;;10.00;9.00;;;;;24.03;27.62;98783.84;245445;1180;58303;-59
2023/11/29 01:23:04;;;;;;;;;9.75;9.00;;;;;24.02;27.48;98780.67;245443;1182;73596;-60
2023/11/29 01:28:07;;;;;;;;;11.50;10.00;;;;;24.02;27.44;98776.52;245434;1190;73491;-60
2023/11/29 01:33:10;;;;;;;;;8.25;8.25;;;;;24.02;27.58;98778.05;245373;1184;74099;-60
2023/11/29 01:38:14;;;;;;;;;8.00;8.00;;;;;24.01;27.54;98790.51;245395;1182;73638;-60
2023/11/29 01:43:17;;;;;;;;;8.00;8.00;;;;;24.00;27.54;98801.98;245394;1177;58354;-59
2023/11/29 01:48:21;;;;;;;;;8.25;8.00;;;;;24.00;27.48;98813.73;245368;1177;58316;-60
2023/11/29 01:53:27;;;;;;;;;9.00;9.00;;;;;24.00;27.48;98817.61;245405;1177;74207;-60
2023/11/29 01:58:30;;;;;;;;;7.50;7.50;;;;;23.99;27.46;98817.50;245442;1183;73163;-60
2023/11/29 02:03:33;;;;;;;;;7.00;7.00;;;;;23.99;27.64;98836.94;245525;1177;58263;-60
2023/11/29 02:08:36;;;;;;;;;9.33;9.33;;;;;23.99;27.46;98855.83;245436;1181;58377;-60
2023/11/29 02:13:39;;;;;;;;;9.00;8.75;;;;;23.97;27.48;98852.77;245465;1183;58221;-60
2023/11/29 02:18:43;;;;;;;;;10.50;10.50;;;;;23.96;27.49;98858.40;245535;1182;58156;-60
2023/11/29 02:23:54;;;;;;;;;9.00;9.00;;;;;23.97;27.54;98868.72;245529;1182;58143;-60
2023/11/29 02:28:57;;;;;;;;;9.00;9.00;;;;;23.96;27.42;98880.31;245441;1177;73120;-60
2023/11/29 02:34:03;;;;;;;;;9.00;9.00;;;;;23.95;27.50;98890.85;245519;1182;72948;-60
2023/11/29 02:39:06;;;;;;;;;9.75;9.75;;;;;23.95;27.45;98901.72;245543;1177;73304;-60
2023/11/29 02:44:09;;;;;;;;;9.00;9.00;;;;;23.95;27.43;98915.91;245422;1182;58583;-59
2023/11/29 02:49:12;;;;;;;;;8.00;8.00;;;;;23.94;27.45;98919.52;245444;1190;73520;-60
2023/11/29 02:54:17;;;;;;;;;9.33;9.33;;;;;23.93;27.54;98926.55;245482;1182;58344;-60
2023/11/29 02:59:21;;;;;;;;;8.25;8.00;;;;;23.93;27.49;98921.80;245470;1184;72770;-60
2023/11/29 03:04:24;;;;;;;;;9.25;9.25;;;;;23.92;27.30;98918.41;245488;1184;58290;-60
2023/11/29 03:09:27;;;;;;;;;10.00;9.00;;;;;23.91;27.50;98914.34;245501;1181;73575;-60
2023/11/29 03:14:30;;;;;;;;;11.33;11.33;;;;;23.90;27.38;98909.30;245439;1180;58625;-60
2023/11/29 03:19:34;;;;;;;;;7.67;7.67;;;;;23.90;27.59;98911.50;245434;1184;72971;-59
2023/11/29 03:24:37;;;;;;;;;9.00;9.00;;;;;23.90;27.44;98934.48;245482;1177;58262;-60
2023/11/29 03:29:40;;;;;;;;;10.00;10.00;;;;;23.90;27.47;98938.52;245471;1177;58256;-60
2023/11/29 03:34:43;;;;;;;;;10.25;10.25;;;;;23.90;27.47;98953.05;245491;1177;58290;-60
2023/11/29 03:39:46;;;;;;;;;9.00;9.00;;;;;23.89;27.66;98955.50;245483;1181;58313;-60
2023/11/29 03:44:49;;;;;;;;;11.25;11.25;;;;;23.89;27.57;98945.98;245479;1181;58312;-60
2023/11/29 03:49:52;;;;;;;;;9.75;9.00;;;;;23.88;27.62;98961.16;245521;1177;73877;-60
2023/11/29 03:54:55;;;;;;;;;9.33;9.33;;;;;23.88;27.64;98974.38;245534;1182;58295;-60
2023/11/29 03:59:58;;;;;;;;;9.67;9.67;;;;;23.88;27.60;98976.41;245454;1177;58225;-60
2023/11/29 04:05:01;;;;;;;;;9.00;9.00;;;;;23.87;27.63;98996.01;245437;1177;58295;-60
2023/11/29 04:10:08;;;;;;;;;12.25;10.00;;;;;23.87;27.58;99025.98;245467;1177;72723;-60
2023/11/29 04:15:12;;;;;;;;;12.00;11.25;;;;;23.86;27.62;99050.50;245446;1183;72720;-60
2023/11/29 04:20:15;;;;;;;;;9.00;8.67;;;;;23.85;27.58;99055.70;245427;1183;73147;-60
2023/11/29 04:25:19;;;;;;;;;11.67;11.33;;;;;23.85;27.68;99062.08;245445;1183;74260;-60
2023/11/29 04:30:22;;;;;;;;;12.00;9.67;;;;;23.87;27.68;99071.43;245429;1177;74247;-60
2023/11/29 04:35:27;;;;;;;;;10.75;8.25;;;;;23.97;27.57;99087.61;245378;1177;72725;-60
2023/11/29 04:40:30;;;;;;;;;10.00;10.00;;;;;24.13;27.14;99094.90;245413;1180;58149;-60
2023/11/29 04:45:33;;;;;;;;;9.50;9.50;;;;;24.33;26.95;99100.69;245447;1177;58177;-58
2023/11/29 04:52:24;;;;;;;;;9.75;9.75;;;;;24.38;27.03;99114.94;240196;1196;57221;-72
2023/11/29 04:57:28;;;;;;;;;11.00;10.75;;;;;24.47;26.98;99125.14;242505;1183;74072;-72
2023/11/29 05:02:32;;;;;;;;;9.25;9.00;;;;;24.75;26.56;99127.51;243933;1196;73494;-73
2023/11/29 05:07:36;;;;;;;;;11.00;10.25;;;;;25.03;26.17;99133.02;243795;1187;73529;-73
2023/11/29 05:12:41;;;;;;;;;13.75;12.25;;;;;25.21;25.90;99147.55;244528;1186;73646;-74
2023/11/29 05:17:44;;;;;;;;;11.50;11.25;;;;;25.34;25.78;99165.71;245034;1185;72354;-74
2023/11/29 05:22:49;;;;;;;;;13.67;12.00;;;;;25.38;25.82;99183.65;244968;1186;73066;-74
2023/11/29 05:27:53;;;;;;;;;12.25;12.25;;;;;25.40;25.53;99191.52;244935;1187;73678;-74
2023/11/29 05:32:57;;;;;;;;;11.00;11.00;;;;;25.40;25.46;99211.39;244775;1180;73536;-75
2023/11/29 05:38:02;;;;;;;;;12.33;12.00;;;;;25.41;26.08;99219.79;244762;1180;73198;-74
2023/11/29 05:43:06;;;;;;;;;17.75;13.00;;;;;25.43;26.15;99243.91;244605;1180;73377;-73
2023/11/29 05:48:11;;;;;;;;;13.50;13.50;;;;;25.50;25.93;99259.06;244775;1180;72503;-73
2023/11/29 05:53:17;;;;;;;;;18.25;17.25;;;;;25.58;26.90;99271.22;244753;1180;73153;-71
2023/11/29 05:58:21;;;;;;;;;18.25;16.50;;;;;25.60;27.90;99286.70;244231;1185;74298;-72
2023/11/29 06:03:27;;;;;;;;;15.75;15.75;;;;;25.69;29.16;99293.39;244487;1180;74270;-77
2023/11/29 06:08:31;;;;;;;;;18.00;15.00;;;;;25.94;30.48;99304.27;244514;1180;73824;-73
2023/11/29 06:13:35;;;;;;;;;15.75;15.00;;;;;26.22;31.10;99315.86;244715;1180;73649;-77
2023/11/29 06:18:40;;;;;;;;;19.33;18.00;;;;;26.42;31.11;99323.96;244461;1180;73290;-78
2023/11/29 06:23:46;;;;;;;;;20.00;19.50;;;;;26.61;31.05;99345.23;244630;1185;73093;-77
2023/11/29 06:28:52;;;;;;;;;17.50;17.50;;;;;26.78;31.04;99363.04;244521;1186;73593;-77
2023/11/29 06:33:56;;;;;;;;;18.67;18.33;;;;;26.93;31.18;99367.57;244551;1186;73348;-78
2023/11/29 06:39:04;;;;;;;;;17.75;17.00;;;;;27.09;30.91;99389.34;244562;1185;73845;-78
2023/11/29 06:44:08;;;;;;;;;18.33;18.33;;;;;27.20;31.03;99401.42;244779;1180;73416;-77
2023/11/29 06:49:13;;;;;;;;;18.50;16.00;;;;;27.26;30.92;99419.12;244592;1186;72985;-75
2023/11/29 06:54:18;;;;;;;;;24.50;24.00;;;;;27.35;30.52;99433.45;244412;1181;72991;-74
2023/11/29 06:59:24;;;;;;;;;23.00;21.00;;;;;27.26;28.88;99451.67;244541;1186;73103;-78
2023/11/29 07:04:28;;;;;;;;;27.67;24.33;;;;;26.76;28.25;99461.13;244664;1184;73511;-78
2023/11/29 07:09:33;;;;;;;;;22.00;20.50;;;;;26.81;30.07;99477.59;245349;1182;73665;-77
2023/11/29 07:14:37;;;;;;;;;25.00;21.00;;;;;26.97;29.89;99490.86;245231;1182;74325;-77
2023/11/29 07:19:43;;;;;;;;;20.00;19.75;;;;;27.13;30.35;99499.83;245288;1179;73319;-76
2023/11/29 07:24:47;;;;;;;;;20.50;18.00;;;;;27.28;30.47;99504.55;245281;1182;72678;-76
2023/11/29 07:29:51;;;;;;;;;21.00;19.67;;;;;27.39;30.43;99519.30;245207;1180;74527;-73
2023/11/29 07:34:55;;;;;;;;;18.75;18.75;;;;;27.47;30.35;99534.10;245246;1179;73372;-75
2023/11/29 07:40:00;;;;;;;;;20.00;20.00;;;;;27.57;30.50;99536.42;245312;1183;73487;-76
2023/11/29 07:45:07;;;;;;;;;23.75;20.75;;;;;27.64;30.45;99545.11;245356;1180;73517;-76
2023/11/29 07:50:13;;;;;;;;;18.00;18.00;;;;;27.74;30.93;99555.02;245339;1180;73221;-77
2023/11/29 07:55:17;;;;;;;;;20.00;19.33;;;;;27.77;30.73;99564.24;245264;1183;73344;-77
2023/11/29 08:00:23;;;;;;;;;26.25;26.25;;;;;27.55;28.33;99571.64;245108;1183;73574;-81
2023/11/29 08:05:28;;;;;;;;;23.33;23.00;;;;;27.14;29.45;99587.61;245363;1179;73308;-76
2023/11/29 08:10:33;;;;;;;;;21.50;19.00;;;;;27.23;30.83;99595.59;245342;1182;73311;-74
2023/11/29 08:15:38;;;;;;;;;21.50;20.50;;;;;27.40;30.60;99604.88;245288;1180;72903;-75
2023/11/29 08:20:44;;;;;;;;;17.50;17.25;;;;;27.54;30.66;99617.19;245325;1180;73502;-74
2023/11/29 08:25:49;;;;;;;;;17.75;16.50;;;;;27.66;30.54;99615.64;245296;1182;73423;-74
2023/11/29 08:30:53;;;;;;;;;20.25;17.75;;;;;27.74;30.70;99622.44;245277;1183;73626;-74
2023/11/29 08:35:57;;;;;;;;;17.00;16.33;;;;;27.84;30.95;99620.42;245313;1180;73520;-76
2023/11/29 08:41:02;;;;;;;;;22.00;21.25;;;;;27.95;30.77;99626.58;245346;1184;73505;-74
2023/11/29 08:46:07;;;;;;;;;16.50;15.00;;;;;28.06;30.63;99630.25;245279;1182;73035;-76
2023/11/29 08:51:14;;;;;;;;;17.75;17.75;;;;;28.16;30.95;99632.13;245253;1180;73320;-76
2023/11/29 08:56:26;;;;;;;;;17.50;17.50;;;;;28.21;29.51;99632.75;245074;1180;73330;-76
2023/11/29 09:01:31;;;;;;;;;16.50;13.25;;;;;27.87;27.73;99642.07;245153;1181;72671;-77
2023/11/29 09:06:38;;;;;;;;;17.00;15.50;;;;;27.62;28.79;99646.98;245108;1179;74893;-75
2023/11/29 09:11:45;;;;;;;;;18.33;18.33;;;;;27.70;30.22;99643.89;245067;1180;72866;-77
2023/11/29 09:16:52;;;;;;;;;18.75;16.75;;;;;27.75;28.91;99637.45;245083;1179;73429;-77
2023/11/29 09:22:07;;;;;;;;;17.75;17.75;;;;;27.67;27.95;99640.59;244963;1180;72913;-78
2023/11/29 09:27:12;;;;;;;;;21.33;21.33;;;;;27.60;27.18;99660.17;244136;1183;74259;-76
2023/11/29 09:32:18;;;;;;;;;18.50;18.50;;;;;27.59;26.80;99679.89;244299;1180;74483;-80
2023/11/29 09:37:22;;;;;;;;;19.75;19.75;;;;;27.63;26.62;99679.17;244363;1182;73298;-76
2023/11/29 09:42:28;;;;;;;;;21.50;19.50;;;;;27.67;26.58;99684.54;244224;1180;73608;-75
2023/11/29 09:47:33;;;;;;;;;20.67;18.33;;;;;27.72;26.23;99693.02;244145;1179;72865;-77
2023/11/29 09:52:38;;;;;;;;;16.50;16.50;;;;;27.82;26.00;99691.33;244376;1178;71852;-74
2023/11/29 09:57:42;;;;;;;;;23.00;23.00;;;;;27.63;24.57;99692.09;244116;1179;73627;-77
2023/11/29 10:02:47;;;;;;;;;17.75;16.00;;;;;27.26;23.73;99713.69;244176;1180;72232;-77
2023/11/29 10:07:51;;;;;;;;;16.75;16.75;;;;;27.43;23.87;99730.86;243938;1179;73299;-76
2023/11/29 10:12:56;;;;;;;;;16.75;16.75;;;;;27.77;23.86;99737.99;244033;1179;73368;-76
2023/11/29 10:18:10;;;;;;;;;14.75;14.25;;;;;28.09;23.38;99752.67;244062;1180;72914;-76
2023/11/29 10:23:14;;;;;;;;;16.25;16.25;;;;;28.46;23.23;99774.69;244193;1179;72811;-76
2023/11/29 10:28:20;;;;;;;;;15.00;15.00;;;;;28.81;22.79;99804.54;244136;1180;73883;-76
2023/11/29 10:33:25;;;;;;;;;20.00;17.25;;;;;29.18;22.61;99786.30;244124;1181;74317;-77
2023/11/29 10:38:43;;;;;;;;;13.50;13.50;;;;;29.38;22.26;99783.05;244210;1183;73121;-76
2023/11/29 10:43:49;;;;;;;;;13.00;13.00;;;;;29.65;22.13;99785.30;244239;1179;73407;-76
2023/11/29 10:49:22;;;;;;;;;13.25;12.75;;;;;29.88;22.05;99785.50;244326;1182;72723;-77
2023/11/29 10:54:27;;;;;;;;;13.33;13.33;;;;;30.00;21.86;99780.95;244345;1183;73518;-76
2023/11/29 10:59:51;;;;;;;;;12.25;12.25;;;;;30.24;21.82;99776.83;244202;1180;73147;-78
2023/11/29 11:05:09;;;;;;;;;11.67;11.67;;;;;30.22;21.85;99781.38;244109;1183;73875;-77
2023/11/29 11:10:24;;;;;;;;;14.50;13.50;;;;;30.36;21.78;99803.77;245288;1183;73829;-76
2023/11/29 11:15:32;;;;;;;;;12.50;12.50;;;;;30.82;21.11;99818.69;245039;1182;73623;-78
2023/11/29 11:21:05;;;;;;;;;12.25;12.25;;;;;31.08;21.04;99828.09;245146;1181;73203;-77
2023/11/29 11:26:13;;;;;;;;;13.25;12.25;;;;;31.32;20.84;99851.38;245156;1183;73109;-78
2023/11/29 11:31:18;;;;;;;;;14.00;12.75;;;;;30.95;21.06;99861.36;245050;1183;73674;-77
2023/11/29 11:36:28;;;;;;;;;13.33;11.67;;;;;30.67;21.61;99875.08;245210;1184;73895;-78
2023/11/29 11:41:36;;;;;;;;;13.75;11.00;;;;;30.61;21.78;99873.55;245117;1183;73155;-77
2023/11/29 11:46:41;;;;;;;;;12.75;12.75;;;;;30.49;21.84;99873.02;245132;1183;73820;-77
2023/11/29 11:51:45;;;;;;;;;12.25;12.25;;;;;30.12;22.26;99871.78;245079;1183;73388;-76
2023/11/29 11:56:58;;;;;;;;;11.50;11.00;;;;;29.78;22.91;99885.11;245067;1180;74339;-76
2023/11/29 12:02:02;;;;;;;;;13.50;13.50;;;;;29.51;23.34;99878.33;245116;1179;73543;-77
2023/11/29 12:07:07;;;;;;;;;12.75;12.75;;;;;29.31;23.78;99878.69;245249;1183;72900;-77
2023/11/29 12:12:14;;;;;;;;;10.50;10.50;;;;;29.18;23.72;99888.42;245211;1182;73592;-77
2023/11/29 12:17:18;;;;;;;;;13.00;12.75;;;;;29.03;24.10;99894.84;245233;1183;73473;-76
2023/11/29 12:22:25;;;;;;;;;15.00;13.25;;;;;28.87;24.40;99900.58;245195;1183;72902;-77
2023/11/29 12:27:29;;;;;;;;;10.75;10.50;;;;;28.75;24.40;99898.09;245259;1183;73950;-78
2023/11/29 12:32:33;;;;;;;;;11.00;11.00;;;;;28.62;24.87;99893.24;245265;1183;73585;-77
2023/11/29 12:37:47;;;;;;;;;9.50;9.50;;;;;28.41;24.96;99901.13;245255;1183;73573;-73
2023/11/29 12:42:51;;;;;;;;;10.75;10.75;;;;;28.19;25.23;99913.20;245250;1182;73071;-72
2023/11/29 12:48:02;;;;;;;;;12.25;10.25;;;;;28.01;25.27;99921.98;245217;1177;73519;-72
2023/11/29 12:53:07;;;;;;;;;10.00;10.00;;;;;27.89;25.83;99923.86;245251;1184;73481;-76
2023/11/29 12:58:10;;;;;;;;;10.50;10.50;;;;;27.77;25.83;99929.41;245136;1179;73126;-76
2023/11/29 13:03:14;;;;;;;;;11.50;11.25;;;;;27.67;25.91;99933.39;245321;1180;72841;-76
2023/11/29 13:08:18;;;;;;;;;14.00;12.75;;;;;27.58;25.89;99938.92;245485;1184;73114;-76
2023/11/29 13:13:23;;;;;;;;;12.00;12.00;;;;;27.45;26.42;99955.99;245425;1183;73681;-77
2023/11/29 13:18:27;;;;;;;;;12.75;12.25;;;;;27.30;26.78;99973.60;245417;1182;72990;-76
2023/11/29 13:23:32;;;;;;;;;19.00;17.25;;;;;27.14;26.78;99985.68;245516;1177;74163;-76
2023/11/29 13:28:37;;;;;;;;;15.75;15.00;;;;;26.92;26.51;100001.20;245420;1183;73709;-76
2023/11/29 13:33:42;;;;;;;;;17.75;17.25;;;;;26.72;26.36;100009.92;245540;1177;72745;-75
2023/11/29 13:38:46;;;;;;;;;18.25;18.00;;;;;26.56;26.63;100022.67;245541;1182;72762;-75
2023/11/29 13:43:50;;;;;;;;;17.50;16.00;;;;;26.46;26.76;100028.25;245431;1178;73886;-76
2023/11/29 13:48:58;;;;;;;;;18.67;18.00;;;;;26.40;26.96;100021.28;245336;1183;72661;-76
2023/11/29 13:54:02;;;;;;;;;17.25;17.00;;;;;26.36;27.12;100027.51;245390;1182;72547;-76
2023/11/29 13:59:07;;;;;;;;;16.25;15.50;;;;;26.33;27.23;100037.51;245428;1179;74277;-76
2023/11/29 14:04:13;;;;;;;;;19.75;19.00;;;;;26.30;27.38;100040.10;245344;1182;73097;-76
2023/11/29 14:09:17;;;;;;;;;15.25;15.25;;;;;26.25;27.36;100044.89;245332;1182;73913;-76
2023/11/29 14:14:21;;;;;;;;;22.00;21.25;;;;;26.18;26.97;100055.63;245372;1177;72712;-76
2023/11/29 14:19:25;;;;;;;;;23.33;23.33;;;;;26.04;26.44;100062.63;245364;1182;73935;-76
2023/11/29 14:24:29;;;;;;;;;20.75;20.75;;;;;25.91;26.65;100080.27;245383;1183;72535;-76
2023/11/29 14:29:34;;;;;;;;;22.75;22.75;;;;;25.78;26.38;100086.98;245376;1183;73434;-76
2023/11/29 14:34:37;;;;;;;;;20.00;19.00;;;;;25.67;26.41;100098.55;245320;1181;73342;-76
2023/11/29 14:39:42;;;;;;;;;20.50;18.25;;;;;25.61;26.84;100102.09;245352;1183;73547;-76
2023/11/29 14:44:46;;;;;;;;;18.25;17.25;;;;;25.60;27.03;100109.30;245367;1183;73515;-76
2023/11/29 14:49:50;;;;;;;;;21.00;21.00;;;;;25.59;27.04;100116.59;245393;1182;72420;-76
2023/11/29 14:54:55;;;;;;;;;17.00;17.00;;;;;25.58;27.28;100126.60;245347;1183;71996;-76
2023/11/29 14:59:59;;;;;;;;;20.25;19.00;;;;;25.56;27.47;100134.90;245309;1178;73247;-76
2023/11/29 15:05:04;;;;;;;;;20.33;19.00;;;;;25.55;27.46;100150.65;245367;1183;73902;-76
2023/11/29 15:10:08;;;;;;;;;18.33;18.33;;;;;25.52;27.65;100152.88;245314;1182;73896;-76
2023/11/29 15:15:12;;;;;;;;;22.25;20.25;;;;;25.50;27.68;100171.51;245308;1183;72811;-76
2023/11/29 15:20:16;;;;;;;;;17.50;17.50;;;;;25.47;27.58;100186.16;245349;1180;73062;-76
2023/11/29 15:25:21;;;;;;;;;16.25;16.25;;;;;25.45;27.71;100197.63;245364;1182;73199;-76
2023/11/29 15:30:26;;;;;;;;;16.75;16.75;;;;;25.43;27.73;100205.37;245387;1180;74328;-76
2023/11/29 15:35:31;;;;;;;;;19.25;18.75;;;;;25.41;27.87;100211.09;245539;1183;72381;-75
2023/11/29 15:40:37;;;;;;;;;15.00;15.00;;;;;25.39;27.82;100209.80;245540;1183;73189;-76
2023/11/29 15:45:49;;;;;;;;;18.50;17.75;;;;;25.37;27.90;100218.59;245537;1182;73090;-77
2023/11/29 15:50:53;;;;;;;;;18.00;16.00;;;;;25.36;27.91;100226.44;245356;1182;73348;-76
2023/11/29 15:55:57;;;;;;;;;19.33;18.33;;;;;25.35;28.05;100229.77;245324;1183;74213;-76
2023/11/29 16:01:01;;;;;;;;;15.00;15.00;;;;;25.34;28.13;100234.86;245309;1183;73869;-76
2023/11/29 16:06:05;;;;;;;;;17.50;14.00;;;;;25.34;28.00;100243.73;245268;1183;72733;-76
2023/11/29 16:11:10;;;;;;;;;17.00;17.00;;;;;25.33;27.99;100255.27;245334;1183;73675;-76
2023/11/29 16:16:14;;;;;;;;;17.25;16.75;;;;;25.33;28.17;100266.20;245349;1183;73294;-76
2023/11/29 16:21:18;;;;;;;;;13.00;13.00;;;;;25.32;28.24;100274.09;245337;1179;73443;-76
2023/11/29 16:26:21;;;;;;;;;15.67;15.67;;;;;25.31;28.19;100275.71;245313;1180;73056;-76
2023/11/29 16:31:25;;;;;;;;;17.67;17.67;;;;;25.30;28.27;100282.36;245385;1182;73947;-75
2023/11/29 16:36:30;;;;;;;;;17.25;16.00;;;;;25.29;28.32;100295.05;245423;1183;73348;-76
2023/11/29 16:41:34;;;;;;;;;16.75;16.75;;;;;25.28;28.32;100305.02;245363;1183;73130;-75
2023/11/29 16:46:38;;;;;;;;;17.00;17.00;;;;;25.28;28.40;100307.85;245367;1184;74617;-75
2023/11/29 16:51:43;;;;;;;;;16.50;15.75;;;;;25.27;28.53;100310.95;245351;1183;72942;-76
2023/11/29 16:56:46;;;;;;;;;14.50;14.50;;;;;25.25;28.63;100317.92;245360;1180;73232;-75
2023/11/29 17:01:50;;;;;;;;;15.00;15.00;;;;;25.24;28.63;100327.23;245333;1180;72814;-76
2023/11/29 17:06:55;;;;;;;;;15.75;15.75;;;;;25.24;28.72;100332.08;245349;1183;73110;-75
2023/11/29 17:12:00;;;;;;;;;17.50;17.50;;;;;25.22;28.72;100339.05;245343;1184;73036;-75
2023/11/29 17:17:04;;;;;;;;;13.00;13.00;;;;;25.21;28.80;100351.90;245352;1181;74135;-75
2023/11/29 17:22:08;;;;;;;;;14.50;14.50;;;;;25.20;28.65;100369.41;245368;1182;73017;-75
2023/11/29 17:27:12;;;;;;;;;13.25;13.00;;;;;25.20;28.77;100386.65;245358;1191;73752;-75
2023/11/29 17:32:17;;;;;;;;;18.50;18.50;;;;;25.19;28.81;100398.79;245382;1183;73017;-75
2023/11/29 17:37:20;;;;;;;;;19.00;15.75;;;;;25.18;28.87;100409.93;245322;1184;73489;-75
2023/11/29 17:42:25;;;;;;;;;13.00;13.00;;;;;25.17;28.93;100425.19;245344;1183;73429;-76
2023/11/29 17:47:29;;;;;;;;;14.25;14.25;;;;;25.17;28.88;100440.11;245327;1178;74426;-76
2023/11/29 17:52:34;;;;;;;;;15.25;14.00;;;;;25.15;29.07;100430.95;245390;1184;73413;-76
2023/11/29 17:57:40;;;;;;;;;19.75;17.75;;;;;25.15;29.16;100427.22;245250;1183;73102;-76
2023/11/29 18:02:45;;;;;;;;;18.00;16.00;;;;;25.13;29.03;100433.50;245257;1182;75001;-75
2023/11/29 18:07:53;;;;;;;;;18.00;15.50;;;;;25.13;29.12;100449.52;245335;1180;73672;-75
2023/11/29 18:12:57;;;;;;;;;15.00;15.00;;;;;25.12;29.11;100457.39;245270;1179;74157;-75
2023/11/29 18:18:01;;;;;;;;;15.50;13.00;;;;;25.11;29.02;100467.94;245254;1184;72284;-76
2023/11/29 18:23:12;;;;;;;;;12.75;12.75;;;;;25.10;29.09;100473.59;245343;1183;72933;-76
2023/11/29 18:28:16;;;;;;;;;12.75;12.75;;;;;25.10;29.17;100477.36;245390;1182;74107;-76
2023/11/29 18:33:20;;;;;;;;;15.75;15.75;;;;;25.08;29.13;100487.29;245355;1183;72611;-76
2023/11/29 18:38:26;;;;;;;;;17.50;16.00;;;;;25.07;29.20;100490.70;245349;1180;73312;-76
2023/11/29 18:43:30;;;;;;;;;15.00;12.50;;;;;25.06;29.14;100495.98;245386;1182;73768;-76
2023/11/29 18:48:34;;;;;;;;;16.50;15.50;;;;;25.06;29.18;100500.02;245333;1183;74040;-76
2023/11/29 18:53:39;;;;;;;;;16.25;15.00;;;;;25.05;29.03;100507.73;245375;1183;73389;-75
2023/11/29 18:58:43;;;;;;;;;21.50;18.25;;;;;25.05;29.08;100523.36;245393;1183;73540;-75
2023/11/29 19:03:48;;;;;;;;;17.00;15.50;;;;;25.04;29.10;100541.20;245377;1182;72926;-76
2023/11/29 19:08:52;;;;;;;;;16.75;15.50;;;;;25.03;29.01;100552.79;245411;1179;74619;-76
2023/11/29 19:13:56;;;;;;;;;15.75;15.75;;;;;25.01;28.90;100561.97;245406;1183;73752;-75
2023/11/29 19:19:03;;;;;;;;;17.25;16.00;;;;;24.98;28.93;100566.02;245398;1183;73249;-76
2023/11/29 19:24:06;;;;;;;;;15.50;15.50;;;;;24.95;28.89;100568.75;245415;1180;74081;-75
2023/11/29 19:29:11;;;;;;;;;16.75;16.75;;;;;24.95;28.80;100564.31;245313;1182;73138;-75
2023/11/29 19:34:16;;;;;;;;;16.33;16.33;;;;;24.93;28.88;100568.76;245400;1183;73960;-76
2023/11/29 19:39:20;;;;;;;;;17.00;17.00;;;;;24.93;29.04;100573.02;245395;1180;73121;-75
2023/11/29 19:44:25;;;;;;;;;15.75;15.75;;;;;24.92;29.08;100573.94;245421;1180;74044;-75
2023/11/29 19:49:29;;;;;;;;;14.50;14.50;;;;;24.93;29.00;100576.46;245413;1183;73985;-75
2023/11/29 19:54:34;;;;;;;;;17.00;15.00;;;;;24.93;29.00;100585.61;245378;1183;74299;-75
2023/11/29 19:59:37;;;;;;;;;15.75;14.75;;;;;24.92;29.00;100591.88;245423;1184;73658;-75
2023/11/29 20:04:42;;;;;;;;;15.33;15.33;;;;;24.91;28.94;100604.39;245370;1183;73631;-75
2023/11/29 20:09:45;;;;;;;;;18.00;16.75;;;;;24.91;28.94;100607.60;245366;1178;73707;-75
2023/11/29 20:14:50;;;;;;;;;19.67;18.67;;;;;24.89;29.02;100615.67;245395;1184;73767;-75
2023/11/29 20:20:00;;;;;;;;;17.00;16.25;;;;;24.88;28.99;100627.10;245398;1178;72784;-76
2023/11/29 20:25:14;;;;;;;;;13.33;13.33;;;;;24.88;28.96;100641.30;245375;1180;73996;-76
2023/11/29 20:30:18;;;;;;;;;14.75;14.50;;;;;24.86;28.90;100649.30;245397;1180;73061;-76
2023/11/29 20:35:22;;;;;;;;;17.25;15.00;;;;;24.86;29.02;100652.73;245444;1191;73281;-76
2023/11/29 20:40:42;;;;;;;;;16.00;16.00;;;;;24.86;28.98;100673.31;245382;1182;72990;-76
2023/11/29 20:45:50;;;;;;;;;18.50;17.75;;;;;24.85;29.02;100673.24;245396;1182;73722;-76
2023/11/29 20:50:55;;;;;;;;;15.25;15.25;;;;;24.84;29.00;100683.50;245434;1183;72647;-75
2023/11/29 20:56:00;;;;;;;;;16.67;16.67;;;;;24.82;28.99;100688.44;245432;1183;74511;-75
2023/11/29 21:01:05;;;;;;;;;20.50;18.50;;;;;24.81;28.98;100693.29;245451;1180;73216;-75
2023/11/29 21:06:09;;;;;;;;;18.33;17.67;;;;;24.81;29.04;100691.52;245412;1183;73668;-76
2023/11/29 21:11:17;;;;;;;;;16.25;16.25;;;;;24.81;29.02;100698.85;245423;1180;73140;-75
2023/11/29 21:16:22;;;;;;;;;14.50;14.50;;;;;24.81;29.05;100706.63;245432;1183;74624;-76
2023/11/29 21:21:27;;;;;;;;;19.33;17.33;;;;;24.81;29.04;100704.00;245430;1183;73243;-75
2023/11/29 21:26:31;;;;;;;;;20.00;19.00;;;;;24.80;28.96;100714.92;245473;1180;72112;-75
2023/11/29 21:31:35;;;;;;;;;15.25;14.00;;;;;24.78;29.04;100723.40;245429;1184;73473;-75
2023/11/29 21:36:40;;;;;;;;;20.00;16.33;;;;;24.78;29.04;100736.25;245432;1183;73783;-76
2023/11/29 21:41:45;;;;;;;;;15.75;14.75;;;;;24.77;29.03;100749.91;245437;1184;72776;-76
2023/11/29 21:46:49;;;;;;;;;17.33;17.33;;;;;24.76;29.00;100758.19;245469;1183;71660;-76
2023/11/29 21:51:54;;;;;;;;;16.00;15.50;;;;;24.76;29.02;100765.13;245459;1191;73025;-75
2023/11/29 21:56:58;;;;;;;;;15.00;15.00;;;;;24.74;28.99;100769.91;245449;1177;73485;-75
2023/11/29 22:02:02;;;;;;;;;16.75;16.50;;;;;24.73;29.02;100772.34;245416;1183;73749;-75
2023/11/29 22:07:07;;;;;;;;;16.50;16.50;;;;;24.72;28.86;100771.66;245428;1183;73575;-75
2023/11/29 22:12:11;;;;;;;;;15.25;15.25;;;;;24.71;28.96;100773.07;245469;1183;73976;-75
2023/11/29 22:17:15;;;;;;;;;15.50;15.50;;;;;24.70;29.00;100778.69;245447;1182;72761;-75
2023/11/29 22:22:18;;;;;;;;;13.00;13.00;;;;;24.70;29.02;100781.67;245439;1183;74233;-75
2023/11/29 22:27:23;;;;;;;;;13.67;13.67;;;;;24.70;29.00;100789.71;245397;1177;73180;-75
2023/11/29 22:32:27;;;;;;;;;17.00;15.50;;;;;24.70;28.96;100794.43;245414;1184;73774;-75
2023/11/29 22:37:32;;;;;;;;;14.67;14.67;;;;;24.68;28.96;100793.95;245419;1177;73797;-75
2023/11/29 22:42:36;;;;;;;;;17.00;17.00;;;;;24.68;28.96;100799.68;245432;1183;73109;-75
2023/11/29 22:47:40;;;;;;;;;14.25;14.25;;;;;24.67;28.96;100797.33;245447;1184;73027;-75
2023/11/29 22:52:43;;;;;;;;;14.00;12.00;;;;;24.67;28.96;100801.33;245441;1182;73603;-75
2023/11/29 22:57:48;;;;;;;;;17.00;15.00;;;;;24.66;29.01;100805.30;245457;1182;74281;-75
2023/11/29 23:02:53;;;;;;;;;14.50;14.50;;;;;24.66;28.97;100812.02;245449;1177;72885;-76
2023/11/29 23:07:57;;;;;;;;;17.50;17.25;;;;;24.65;29.12;100814.10;245414;1183;73582;-75